Rockaway, Oregon
Current Conditions -  °F | °C
As of 9:55 AM on Saturday 25 Oct 2014 (Local Time) from KTMK Reporting Station
Broken Clouds Broken Clouds  
Wind Chill: 17°   Ceiling: 7000
Heat Index: 17°   Visibility: 10mi
Dew Point:   Wind: 20mph
Humidity: 55%   Direction: 100°E
Pressure: 29.32"   Gusts: 36mph
Location:  45.6132°N, 123.654°W
Report Text: KTMK 251655Z AUTO 10017G31KT 10SM BKN070 BKN080 17/08 A2932 RMK AO2
Loading
Personal Weather Stations






























Interactive Weather Map
Tropical Storm Tracking
New forecast layout! Learn more

10-Day Weather Forecast

Advertisements
Track Severe Weather on mobile